createdAt,value
2022-08-24T04:00:51.472Z,20.00
2022-08-24T04:03:23.282Z,19.90
2022-08-24T04:05:57.441Z,19.30
2022-08-24T04:08:29.184Z,19.90
2022-08-24T04:13:33.098Z,19.90
2022-08-24T04:16:07.093Z,19.90
2022-08-24T04:18:39.229Z,19.90
2022-08-24T04:21:16.092Z,19.90
2022-08-24T04:23:48.099Z,19.90
2022-08-24T04:26:26.843Z,19.90
2022-08-24T04:29:12.076Z,19.90
2022-08-24T04:31:45.308Z,19.90
2022-08-24T04:34:17.249Z,19.90
2022-08-24T04:36:49.126Z,19.90
2022-08-24T04:39:20.821Z,19.90
2022-08-24T04:41:55.253Z,19.90
2022-08-24T04:44:26.964Z,19.90
2022-08-24T04:47:00.270Z,19.90
2022-08-24T04:49:31.960Z,20.00
2022-08-24T04:52:04.142Z,19.90
2022-08-24T04:54:35.833Z,20.00
2022-08-24T04:57:07.512Z,20.00
2022-08-24T04:59:39.217Z,20.30
2022-08-24T05:02:12.341Z,20.10
2022-08-24T05:12:24.163Z,21.80
2022-08-24T05:17:29.244Z,22.10
2022-08-24T05:20:01.138Z,22.50
2022-08-24T05:22:32.822Z,23.10
2022-08-24T05:25:05.205Z,23.70
2022-08-24T05:27:36.894Z,24.20
2022-08-24T05:30:10.018Z,24.70
2022-08-24T05:32:43.054Z,25.20
2022-08-24T05:35:14.848Z,25.50
2022-08-24T05:37:46.558Z,26.00
2022-08-24T05:40:18.844Z,26.50
2022-08-24T05:42:50.561Z,26.90
2022-08-24T05:45:22.299Z,27.40
2022-08-24T05:47:55.328Z,27.90
2022-08-24T05:50:27.026Z,28.30
2022-08-24T05:52:58.697Z,28.60
2022-08-24T05:55:30.388Z,28.70
2022-08-24T05:58:02.076Z,29.00
2022-08-24T06:00:33.761Z,29.70
2022-08-24T06:03:06.944Z,29.70
2022-08-24T06:05:42.003Z,30.10
2022-08-24T06:08:13.885Z,30.30
2022-08-24T06:10:46.633Z,30.50
2022-08-24T06:13:18.311Z,30.60
2022-08-24T06:18:43.359Z,31.30
2022-08-24T06:21:16.211Z,31.60
2022-08-24T06:23:48.541Z,32.30
2022-08-24T06:26:23.259Z,32.60
2022-08-24T06:28:55.298Z,32.40
2022-08-24T06:31:27.096Z,32.10
2022-08-24T06:34:00.660Z,31.80
2022-08-24T06:36:32.371Z,31.60
2022-08-24T06:39:04.223Z,31.70
2022-08-24T06:41:37.962Z,31.70
2022-08-24T06:44:09.657Z,31.80
2022-08-24T06:46:41.422Z,32.00
2022-08-24T06:49:14.492Z,32.50
2022-08-24T06:54:22.645Z,32.90
2022-08-24T06:56:54.320Z,33.10
2022-08-24T06:59:26.108Z,33.20
2022-08-24T07:01:57.869Z,33.20
2022-08-24T07:04:30.978Z,33.30
2022-08-24T07:07:02.653Z,33.60
2022-08-24T07:09:34.373Z,33.90
2022-08-24T07:14:38.441Z,33.90
2022-08-24T07:17:10.121Z,33.90
2022-08-24T07:19:43.168Z,33.80
2022-08-24T07:22:14.847Z,33.70
2022-08-24T07:24:46.549Z,33.70
2022-08-24T07:27:18.228Z,33.70
2022-08-24T07:30:10.225Z,33.80
2022-08-24T07:32:44.969Z,32.80
2022-08-24T07:35:18.155Z,32.90
2022-08-24T07:37:49.841Z,32.50
2022-08-24T07:40:25.248Z,32.70
2022-08-24T07:45:29.196Z,32.90
2022-08-24T07:50:38.845Z,33.50
2022-08-24T07:53:14.845Z,33.40
2022-08-24T07:55:53.416Z,33.50
2022-08-24T07:58:25.092Z,33.50
2022-08-24T08:00:56.853Z,32.90
2022-08-24T08:03:28.538Z,32.30
2022-08-24T08:06:02.576Z,32.10
2022-08-24T08:08:34.998Z,31.90
2022-08-24T08:11:06.967Z,31.80
2022-08-24T08:16:10.911Z,31.40
2022-08-24T08:18:43.385Z,30.40
2022-08-24T08:21:16.434Z,29.90
2022-08-24T08:23:48.255Z,29.40
2022-08-24T08:26:20.398Z,29.10
2022-08-24T08:28:52.081Z,28.70
2022-08-24T08:31:23.884Z,28.50
2022-08-24T08:33:55.609Z,28.30
2022-08-24T08:36:28.926Z,28.20
2022-08-24T08:39:00.764Z,28.10
2022-08-24T08:42:17.411Z,28.10
2022-08-24T08:44:53.316Z,27.90
2022-08-24T08:47:36.858Z,28.00
2022-08-24T08:50:13.062Z,28.10
2022-08-24T08:53:12.499Z,28.20
2022-08-24T08:55:47.659Z,28.40
2022-08-24T08:58:36.907Z,28.50
2022-08-24T09:01:15.021Z,28.40
2022-08-24T09:04:03.736Z,28.30
2022-08-24T09:06:47.372Z,28.50
2022-08-24T09:09:43.777Z,28.70
2022-08-24T09:12:19.404Z,29.30
2022-08-24T09:15:14.540Z,29.70
2022-08-24T09:17:54.686Z,29.80
2022-08-24T09:20:40.373Z,29.50
2022-08-24T09:23:20.097Z,29.50
2022-08-24T09:25:57.986Z,29.50
2022-08-24T09:28:36.934Z,29.50
2022-08-24T09:31:21.937Z,29.50
2022-08-24T09:34:01.267Z,29.30
2022-08-24T09:36:41.936Z,29.20
2022-08-24T09:39:19.049Z,29.10
2022-08-24T09:42:18.545Z,29.30
2022-08-24T09:45:20.252Z,29.50
2022-08-24T09:48:15.684Z,29.90
2022-08-24T09:51:11.880Z,30.20
2022-08-24T09:54:10.277Z,30.40
2022-08-24T09:56:51.489Z,30.70
2022-08-24T09:59:52.935Z,31.00
2022-08-24T10:02:33.589Z,31.30
2022-08-24T10:05:10.304Z,32.00
2022-08-24T10:07:52.885Z,32.60
2022-08-24T10:10:28.839Z,33.20
2022-08-24T10:13:07.917Z,33.30
2022-08-24T10:15:44.557Z,33.50
2022-08-24T10:18:23.932Z,33.00
2022-08-24T10:21:06.088Z,33.10
2022-08-24T10:23:45.644Z,33.30
2022-08-24T10:26:21.664Z,33.40
2022-08-24T10:29:05.717Z,32.80
2022-08-24T10:31:44.888Z,32.70
2022-08-24T10:34:26.523Z,32.40
2022-08-24T10:37:08.589Z,31.60
2022-08-24T10:40:06.249Z,31.50
2022-08-24T10:43:08.190Z,31.20
2022-08-24T10:46:02.279Z,31.00
2022-08-24T10:49:09.823Z,30.90
2022-08-24T10:51:51.207Z,30.80
2022-08-24T10:54:22.936Z,30.70
2022-08-24T10:56:57.973Z,30.70
2022-08-24T10:59:31.768Z,30.50
2022-08-24T11:02:09.521Z,30.50
2022-08-24T11:04:44.256Z,30.40
2022-08-24T11:07:18.507Z,30.50
2022-08-24T11:09:51.155Z,30.60
2022-08-24T11:12:25.804Z,30.50
2022-08-24T11:14:58.519Z,30.50
2022-08-24T11:17:31.441Z,30.50
2022-08-24T11:20:04.530Z,30.50
2022-08-24T11:22:40.789Z,30.50
2022-08-24T11:25:15.989Z,30.50
2022-08-24T11:27:49.438Z,30.50
2022-08-24T11:30:25.364Z,30.40
2022-08-24T11:32:57.835Z,30.40
2022-08-24T11:35:35.920Z,30.40
2022-08-24T11:38:16.941Z,30.40
2022-08-24T11:40:51.446Z,30.50
2022-08-24T11:43:32.604Z,30.60
2022-08-24T11:46:10.120Z,30.70
2022-08-24T11:48:48.432Z,30.80
2022-08-24T11:51:27.367Z,30.80
2022-08-24T11:54:03.485Z,30.70
2022-08-24T11:56:38.132Z,30.70
2022-08-24T11:59:17.877Z,30.60
2022-08-24T12:01:51.376Z,30.60
2022-08-24T12:04:36.151Z,30.60
2022-08-24T12:07:15.074Z,30.60
2022-08-24T12:10:05.479Z,30.70
2022-08-24T12:12:39.767Z,30.60
2022-08-24T12:15:12.686Z,30.70
2022-08-24T12:17:45.837Z,30.70
2022-08-24T12:20:23.088Z,30.80
2022-08-24T12:22:56.668Z,30.80
2022-08-24T12:25:30.727Z,30.70
2022-08-24T12:28:02.978Z,30.70
2022-08-24T12:30:34.754Z,30.70
2022-08-24T12:33:07.846Z,30.70
2022-08-24T12:35:41.276Z,30.70
2022-08-24T12:38:15.524Z,30.70
2022-08-24T12:40:50.439Z,30.80
2022-08-24T12:43:24.582Z,30.70
2022-08-24T12:45:56.429Z,30.80
2022-08-24T12:48:30.202Z,30.80
2022-08-24T12:51:09.584Z,30.80
2022-08-24T12:53:51.161Z,30.80
2022-08-24T12:56:31.624Z,30.80
2022-08-24T12:59:05.952Z,30.80
2022-08-24T13:01:40.325Z,30.80
2022-08-24T13:04:15.259Z,30.80
2022-08-24T13:06:49.811Z,30.80
2022-08-24T13:09:31.071Z,30.70
2022-08-24T13:12:40.360Z,30.80
2022-08-24T13:15:27.601Z,30.80
2022-08-24T13:18:03.095Z,30.90
2022-08-24T13:20:54.124Z,30.80
2022-08-24T13:23:25.814Z,30.90
2022-08-24T13:25:58.189Z,30.90
2022-08-24T13:28:38.572Z,31.00
2022-08-24T13:31:18.783Z,31.00
2022-08-24T13:33:51.734Z,31.00
2022-08-24T13:36:54.858Z,31.00
2022-08-24T13:39:59.191Z,31.10
2022-08-24T13:42:52.490Z,31.10
2022-08-24T13:45:26.485Z,31.10
2022-08-24T13:48:18.292Z,31.10
2022-08-24T13:51:08.765Z,31.20
2022-08-24T13:53:45.488Z,31.20
2022-08-24T13:56:52.455Z,31.20
2022-08-24T13:59:38.342Z,31.20
2022-08-24T14:02:19.335Z,31.20
2022-08-24T14:04:54.397Z,31.30
2022-08-24T14:07:28.552Z,31.40
2022-08-24T14:10:06.183Z,31.40
2022-08-24T14:12:53.741Z,31.40
2022-08-24T14:15:29.011Z,31.40
2022-08-24T14:18:09.613Z,31.30
2022-08-24T14:21:05.525Z,31.30
2022-08-24T14:23:53.652Z,31.30
2022-08-24T14:27:01.538Z,31.40
2022-08-24T14:29:38.509Z,31.50
2022-08-24T14:32:26.272Z,31.40
2022-08-24T14:35:20.879Z,31.40
2022-08-24T14:38:14.581Z,31.30
2022-08-24T14:41:21.833Z,31.30
2022-08-24T14:44:07.660Z,31.30
2022-08-24T14:46:44.538Z,31.30
2022-08-24T14:49:20.201Z,31.40
2022-08-24T14:52:03.778Z,31.40
2022-08-24T14:54:42.994Z,31.40
2022-08-24T14:57:21.963Z,31.40
2022-08-24T15:00:01.262Z,31.30
2022-08-24T15:03:15.233Z,31.30
2022-08-24T15:06:15.968Z,31.20
2022-08-24T15:08:44.261Z,31.20
2022-08-24T15:11:18.481Z,31.30
2022-08-24T15:13:53.203Z,31.20
2022-08-24T15:16:27.826Z,31.30
2022-08-24T15:19:03.429Z,31.30
2022-08-24T15:21:40.686Z,31.40
2022-08-24T15:24:17.409Z,31.40
2022-08-24T15:27:03.550Z,31.50
2022-08-24T15:29:36.251Z,31.50
2022-08-24T15:32:10.158Z,31.60
2022-08-24T15:34:43.509Z,31.60
2022-08-24T15:37:16.029Z,31.60
2022-08-24T15:39:47.950Z,31.60
2022-08-24T15:42:21.165Z,31.60
2022-08-24T15:44:52.881Z,31.60
2022-08-24T15:47:26.644Z,31.60
2022-08-24T15:49:59.548Z,31.60
2022-08-24T15:52:39.134Z,31.60
2022-08-24T15:55:27.484Z,31.60
2022-08-24T15:58:21.389Z,31.50
2022-08-24T16:00:53.320Z,31.60
2022-08-24T16:03:26.844Z,31.50
2022-08-24T16:05:59.207Z,31.40
2022-08-24T16:08:31.002Z,31.40
2022-08-24T16:11:07.248Z,31.40
2022-08-24T16:13:41.444Z,31.40
2022-08-24T16:16:29.025Z,31.40
2022-08-24T16:19:08.663Z,31.20
2022-08-24T16:21:45.311Z,31.20
2022-08-24T16:24:24.794Z,31.30
2022-08-24T16:27:03.870Z,31.20
2022-08-24T16:29:55.181Z,31.20
2022-08-24T16:32:32.874Z,31.20
2022-08-24T16:35:18.560Z,31.20
2022-08-24T16:37:50.329Z,31.10
2022-08-24T16:40:22.219Z,31.10
2022-08-24T16:42:53.929Z,31.00
2022-08-24T16:45:26.959Z,31.00
2022-08-24T16:47:58.733Z,31.00
2022-08-24T16:50:30.526Z,31.00
2022-08-24T16:53:02.223Z,31.10
2022-08-24T16:55:33.911Z,31.10
2022-08-24T16:58:05.914Z,31.10
2022-08-24T17:00:39.097Z,31.10
2022-08-24T17:03:14.759Z,31.10
2022-08-24T17:05:46.927Z,31.00
2022-08-24T17:08:18.588Z,31.00
2022-08-24T17:10:50.296Z,30.90
2022-08-24T17:13:46.256Z,30.90
2022-08-24T17:16:15.016Z,30.90
2022-08-24T17:18:46.748Z,30.80
2022-08-24T17:21:18.441Z,30.80
2022-08-24T17:23:50.115Z,30.80
2022-08-24T17:26:22.100Z,30.80
2022-08-24T17:28:53.852Z,30.80
2022-08-24T17:31:26.963Z,30.90
2022-08-24T17:33:58.730Z,30.90
2022-08-24T17:36:32.414Z,30.90
2022-08-24T17:39:04.841Z,30.80
2022-08-24T17:41:36.520Z,30.80
2022-08-24T17:44:09.658Z,30.80
2022-08-24T17:46:42.672Z,30.80
2022-08-24T17:49:14.371Z,30.80
2022-08-24T17:51:46.140Z,30.70
2022-08-24T17:54:18.010Z,30.70
2022-08-24T17:56:49.849Z,30.70
2022-08-24T17:59:25.595Z,30.70
2022-08-24T18:01:59.581Z,30.70
2022-08-24T18:04:32.172Z,30.80
2022-08-24T18:07:05.840Z,30.80
2022-08-24T18:09:40.176Z,30.80
2022-08-24T18:12:11.853Z,30.70
2022-08-24T18:14:43.533Z,30.70
2022-08-24T18:17:21.116Z,30.70
2022-08-24T18:19:54.313Z,30.70
2022-08-24T18:22:25.998Z,30.70
2022-08-24T18:24:57.688Z,30.70
2022-08-24T18:27:31.863Z,30.70
2022-08-24T18:30:05.133Z,30.60
2022-08-24T18:32:40.100Z,30.50
2022-08-24T18:35:12.054Z,30.50
2022-08-24T18:37:43.751Z,30.40
2022-08-24T18:40:15.748Z,30.30
2022-08-24T18:42:53.377Z,30.30
2022-08-24T18:45:25.123Z,30.20
2022-08-24T18:48:00.748Z,30.20
2022-08-24T18:50:32.417Z,30.10
2022-08-24T18:53:04.290Z,30.00
2022-08-24T18:55:36.068Z,29.90
2022-08-24T18:58:07.781Z,29.90
2022-08-24T19:00:39.566Z,29.80
2022-08-24T19:03:15.021Z,29.70
2022-08-24T19:05:46.688Z,29.60
2022-08-24T19:08:18.379Z,29.50
2022-08-24T19:10:50.155Z,29.50
2022-08-24T19:13:21.857Z,29.40
2022-08-24T19:15:53.663Z,29.40
2022-08-24T19:18:26.732Z,29.30
2022-08-24T19:20:58.453Z,29.20
2022-08-24T19:23:33.111Z,29.10
2022-08-24T19:26:04.976Z,29.00
2022-08-24T19:28:36.688Z,28.90
2022-08-24T19:31:11.225Z,28.80
2022-08-24T19:33:44.528Z,28.70
2022-08-24T19:36:17.692Z,28.60
2022-08-24T19:38:49.429Z,28.60
2022-08-24T19:41:21.134Z,28.50
2022-08-24T19:43:55.181Z,28.40
2022-08-24T19:46:27.601Z,28.40
2022-08-24T19:49:00.695Z,28.30
2022-08-24T19:51:32.379Z,28.30
2022-08-24T19:54:04.365Z,28.20
2022-08-24T19:56:36.041Z,28.10
2022-08-24T19:59:08.322Z,28.10
2022-08-24T20:01:40.057Z,28.00
2022-08-24T20:04:13.168Z,27.90
2022-08-24T20:06:45.095Z,27.90
2022-08-24T20:09:20.574Z,27.80
2022-08-24T20:11:54.741Z,27.80
2022-08-24T20:14:26.483Z,27.70
2022-08-24T20:16:58.152Z,27.70
2022-08-24T20:19:31.767Z,27.70
2022-08-24T20:22:03.653Z,27.60
2022-08-24T20:24:45.052Z,27.50
2022-08-24T20:27:19.107Z,27.40
2022-08-24T20:29:50.904Z,27.30
2022-08-24T20:32:22.710Z,27.20
2022-08-24T20:34:55.779Z,27.10
2022-08-24T20:37:27.706Z,27.10
2022-08-24T20:40:00.806Z,27.00
2022-08-24T20:42:32.508Z,26.90
2022-08-24T20:45:04.862Z,26.90
2022-08-24T20:47:38.910Z,26.80
2022-08-24T20:50:11.965Z,26.80
2022-08-24T20:52:43.638Z,26.80
2022-08-24T20:55:15.428Z,26.80
2022-08-24T20:57:48.781Z,26.70
2022-08-24T21:00:21.901Z,26.70
2022-08-24T21:02:53.661Z,26.70
2022-08-24T21:05:26.709Z,26.70
2022-08-24T21:07:59.174Z,26.70
2022-08-24T21:10:31.034Z,26.70
2022-08-24T21:13:02.806Z,26.70
2022-08-24T21:15:34.541Z,26.70
2022-08-24T21:18:06.351Z,26.70
2022-08-24T21:20:39.478Z,26.60
2022-08-24T21:23:16.368Z,26.60
2022-08-24T21:25:48.050Z,26.50
2022-08-24T21:28:22.186Z,26.40
2022-08-24T21:30:53.912Z,26.00
2022-08-24T21:33:25.707Z,26.30
2022-08-24T21:35:58.725Z,26.20
2022-08-24T21:38:30.879Z,26.20
2022-08-24T21:41:02.571Z,26.10
2022-08-24T21:43:34.359Z,26.00
2022-08-24T21:46:06.124Z,26.00
2022-08-24T21:48:37.891Z,25.90
2022-08-24T21:51:10.990Z,25.90
2022-08-24T21:53:42.692Z,25.90
2022-08-24T21:56:14.897Z,25.90
2022-08-24T21:58:50.884Z,25.90
